createdAt,value
2022-07-27T00:03:12.952Z,98058.84
2022-07-27T00:07:14.957Z,98055.44
2022-07-27T00:11:17.016Z,98060.25
2022-07-27T00:15:19.063Z,98063.13
2022-07-27T00:19:21.083Z,98066.28
2022-07-27T00:23:23.139Z,98072.44
2022-07-27T00:27:25.167Z,98067.03
2022-07-27T00:31:27.373Z,98070.88
2022-07-27T00:35:29.446Z,98064.47
2022-07-27T00:39:31.989Z,98058.66
2022-07-27T00:43:49.592Z,98064.63
2022-07-27T00:47:54.937Z,98070.16
2022-07-27T00:51:57.355Z,98063.34
2022-07-27T00:55:59.596Z,98061.22
2022-07-27T01:00:01.709Z,98073.13
2022-07-27T01:04:04.983Z,98063.47
2022-07-27T01:08:07.807Z,98063.75
2022-07-27T01:12:15.243Z,98059.41
2022-07-27T01:16:17.399Z,98072.25
2022-07-27T01:20:19.507Z,98065.34
2022-07-27T01:24:21.545Z,98074.47
2022-07-27T01:28:23.633Z,98068.66
2022-07-27T01:32:26.977Z,98076.72
2022-07-27T01:36:29.805Z,98080.19
2022-07-27T01:40:31.985Z,98077.78
2022-07-27T01:44:34.055Z,98072.88
2022-07-27T01:48:36.148Z,98062.19
2022-07-27T01:52:39.259Z,98071.63
2022-07-27T01:56:41.604Z,98077.25
2022-07-27T02:00:44.344Z,98070.91
2022-07-27T02:04:46.441Z,98065.91
2022-07-27T02:08:48.527Z,98072.69
2022-07-27T02:12:51.758Z,98071.31
2022-07-27T02:16:53.818Z,98071.53
2022-07-27T02:20:57.776Z,98062.28
2022-07-27T02:24:59.923Z,98065.25
2022-07-27T02:29:01.929Z,98062.50
2022-07-27T02:33:04.236Z,98060.81
2022-07-27T02:37:06.450Z,98063.78
2022-07-27T02:41:08.451Z,98060.50
2022-07-27T02:45:10.720Z,98058.56
2022-07-27T02:49:13.168Z,98065.66
2022-07-27T02:53:15.484Z,98069.69
2022-07-27T02:57:17.723Z,98067.38
2022-07-27T03:01:19.825Z,98072.03
2022-07-27T03:05:21.951Z,98069.38
2022-07-27T03:09:32.725Z,98060.97
2022-07-27T03:13:35.644Z,98063.44
2022-07-27T03:17:37.666Z,98059.44
2022-07-27T03:21:39.694Z,98058.81
2022-07-27T03:25:41.717Z,98042.34
2022-07-27T03:29:43.771Z,98051.63
2022-07-27T03:33:45.809Z,98049.75
2022-07-27T03:37:47.861Z,98060.44
2022-07-27T03:41:49.879Z,98055.03
2022-07-27T03:45:52.052Z,98058.41
2022-07-27T03:49:54.285Z,98058.41
2022-07-27T03:53:56.355Z,98063.06
2022-07-27T03:57:59.068Z,98057.44
2022-07-27T04:02:01.281Z,98056.03
2022-07-27T04:06:03.423Z,98068.53
2022-07-27T04:10:06.563Z,98064.91
2022-07-27T04:14:10.364Z,98082.41
2022-07-27T04:18:15.198Z,98084.66
2022-07-27T04:22:17.215Z,98081.75
2022-07-27T04:26:19.397Z,98084.75
2022-07-27T04:30:21.939Z,98099.19
2022-07-27T04:34:23.995Z,98095.59
2022-07-27T04:38:26.008Z,98094.94
2022-07-27T04:42:30.002Z,98088.47
2022-07-27T04:46:32.368Z,98093.50
2022-07-27T04:50:44.999Z,98096.41
2022-07-27T04:54:51.733Z,98101.03
2022-07-27T04:58:54.696Z,98095.09
2022-07-27T05:02:56.703Z,98109.50
2022-07-27T05:06:58.740Z,98093.63
2022-07-27T05:11:00.917Z,98097.97
2022-07-27T05:15:03.161Z,98096.19
2022-07-27T05:19:05.220Z,98107.25
2022-07-27T05:23:07.297Z,98108.31
2022-07-27T05:27:09.383Z,98108.22
2022-07-27T05:31:11.404Z,98116.16
2022-07-27T05:35:13.675Z,98125.72
2022-07-27T05:39:16.113Z,98137.69
2022-07-27T05:43:18.337Z,98137.38
2022-07-27T05:47:20.525Z,98139.56
2022-07-27T05:51:22.633Z,98144.25
2022-07-27T05:55:25.866Z,98145.91
2022-07-27T05:59:28.329Z,98155.53
2022-07-27T06:03:31.025Z,98152.94
2022-07-27T06:07:51.567Z,98146.75
2022-07-27T06:11:53.621Z,98151.09
2022-07-27T06:15:56.071Z,98150.31
2022-07-27T06:19:58.139Z,98160.22
2022-07-27T06:24:00.232Z,98161.16
2022-07-27T06:28:03.951Z,98160.81
2022-07-27T06:32:06.732Z,98157.38
2022-07-27T06:36:10.002Z,98172.72
2022-07-27T06:40:14.049Z,98166.75
2022-07-27T06:44:16.196Z,98156.66
2022-07-27T06:48:18.213Z,98158.94
2022-07-27T06:52:20.244Z,98156.91
2022-07-27T06:56:22.597Z,98152.25
2022-07-27T07:00:24.828Z,98151.38
2022-07-27T07:04:27.143Z,98161.03
2022-07-27T07:08:29.311Z,98160.81
2022-07-27T07:12:32.080Z,98156.81
2022-07-27T07:16:34.557Z,98165.56
2022-07-27T07:20:37.819Z,98172.31
2022-07-27T07:24:39.906Z,98175.28
2022-07-27T07:28:42.029Z,98165.41
2022-07-27T07:32:44.636Z,98172.00
2022-07-27T07:36:47.819Z,98182.31
2022-07-27T07:40:50.003Z,98177.06
2022-07-27T07:44:52.206Z,98183.50
2022-07-27T07:48:54.329Z,98181.53
2022-07-27T07:52:56.539Z,98182.63
2022-07-27T07:56:58.564Z,98185.94
2022-07-27T08:01:00.656Z,98178.16
2022-07-27T08:05:02.901Z,98180.81
2022-07-27T08:09:04.981Z,98180.72
2022-07-27T08:13:07.277Z,98181.81
2022-07-27T08:17:09.319Z,98176.34
2022-07-27T08:21:11.391Z,98173.56
2022-07-27T08:25:13.882Z,98175.50
2022-07-27T08:29:16.253Z,98188.81
2022-07-27T08:33:18.580Z,98176.13
2022-07-27T08:37:20.600Z,98181.91
2022-07-27T08:41:25.875Z,98174.63
2022-07-27T08:45:28.661Z,98177.28
2022-07-27T08:49:42.517Z,98183.94
2022-07-27T08:53:53.282Z,98178.78
2022-07-27T08:58:02.217Z,98179.38
2022-07-27T09:02:10.637Z,98184.94
2022-07-27T09:06:12.744Z,98184.81
2022-07-27T09:10:38.115Z,98177.47
2022-07-27T09:14:41.480Z,98180.88
2022-07-27T09:18:43.587Z,98184.25
2022-07-27T09:22:51.067Z,98183.50
2022-07-27T09:27:02.108Z,98189.81
2022-07-27T09:31:09.322Z,98191.25
2022-07-27T09:35:23.427Z,98174.28
2022-07-27T09:39:26.943Z,98172.84
2022-07-27T09:44:28.701Z,98174.38
2022-07-27T09:47:52.889Z,98163.34
2022-07-27T09:51:59.938Z,98173.25
2022-07-27T09:56:07.360Z,98174.84
2022-07-27T10:00:11.731Z,98169.13
2022-07-27T10:04:14.277Z,98160.94
2022-07-27T10:08:16.738Z,98153.81
2022-07-27T10:12:18.809Z,98164.88
2022-07-27T10:16:28.762Z,98173.84
2022-07-27T10:20:33.510Z,98163.19
2022-07-27T10:24:37.167Z,98161.16
2022-07-27T10:28:58.402Z,98167.81
2022-07-27T10:33:12.014Z,98170.44
2022-07-27T10:37:26.530Z,98174.66
2022-07-27T10:41:31.375Z,98167.09
2022-07-27T10:45:57.809Z,98172.91
2022-07-27T10:50:15.757Z,98174.97
2022-07-27T10:54:26.996Z,98185.19
2022-07-27T10:58:29.598Z,98190.97
2022-07-27T11:02:40.627Z,98182.59
2022-07-27T11:07:22.117Z,98175.84
2022-07-27T11:11:08.830Z,98178.00
2022-07-27T11:15:10.942Z,98178.91
2022-07-27T11:19:13.473Z,98173.97
2022-07-27T11:23:50.508Z,98170.25
2022-07-27T11:27:52.147Z,98160.16
2022-07-27T11:31:57.673Z,98171.22
2022-07-27T11:36:06.040Z,98164.09
2022-07-27T11:40:37.270Z,98165.81
2022-07-27T11:44:30.881Z,98169.81
2022-07-27T11:48:56.455Z,98153.13
2022-07-27T11:53:01.803Z,98144.38
2022-07-27T11:57:18.888Z,98147.69
2022-07-27T12:01:33.703Z,98142.84
2022-07-27T12:05:35.760Z,98146.50
2022-07-27T12:09:43.455Z,98148.44
2022-07-27T12:13:45.462Z,98153.72
2022-07-27T12:17:55.189Z,98150.75
2022-07-27T12:21:58.172Z,98156.66
2022-07-27T12:26:17.225Z,98155.13
2022-07-27T12:30:31.217Z,98144.25
2022-07-27T12:34:35.281Z,98144.84
2022-07-27T12:38:45.566Z,98147.22
2022-07-27T12:42:55.943Z,98149.34
2022-07-27T12:47:01.861Z,98149.47
2022-07-27T12:51:06.852Z,98149.06
2022-07-27T12:55:15.343Z,98143.56
2022-07-27T12:59:23.285Z,98135.69
2022-07-27T13:03:25.503Z,98125.25
2022-07-27T13:07:27.586Z,98131.97
2022-07-27T13:11:29.635Z,98125.13
2022-07-27T13:15:31.897Z,98115.25
2022-07-27T13:19:33.976Z,98123.34
2022-07-27T13:23:36.201Z,98128.41
2022-07-27T13:27:39.360Z,98125.34
2022-07-27T13:31:49.013Z,98117.63
2022-07-27T13:36:00.536Z,98123.84
2022-07-27T13:40:04.480Z,98117.78
2022-07-27T13:44:08.485Z,98115.00
2022-07-27T13:48:12.962Z,98103.31
2022-07-27T13:52:15.149Z,98103.13
2022-07-27T13:56:17.414Z,98093.50
2022-07-27T14:00:25.923Z,98106.59
2022-07-27T14:04:28.110Z,98108.66
2022-07-27T14:08:30.945Z,98109.91
2022-07-27T14:12:33.064Z,98111.03
2022-07-27T14:16:35.326Z,98119.13
2022-07-27T14:20:37.622Z,98115.78
2022-07-27T14:24:39.861Z,98115.75
2022-07-27T14:28:43.809Z,98120.47
2022-07-27T14:32:45.862Z,98120.53
2022-07-27T14:36:47.876Z,98128.53
2022-07-27T14:40:50.620Z,98120.69
2022-07-27T14:44:53.175Z,98115.69
2022-07-27T14:49:10.678Z,98117.38
2022-07-27T14:53:12.947Z,98115.78
2022-07-27T14:57:15.614Z,98116.03
2022-07-27T15:01:17.685Z,98104.84
2022-07-27T15:05:19.834Z,98104.84
2022-07-27T15:09:22.152Z,98105.00
2022-07-27T15:13:24.919Z,98105.97
2022-07-27T15:17:27.053Z,98099.50
2022-07-27T15:21:29.588Z,98103.59
2022-07-27T15:25:31.779Z,98100.31
2022-07-27T15:29:33.842Z,98090.75
2022-07-27T15:33:35.996Z,98095.56
2022-07-27T15:37:38.154Z,98089.63
2022-07-27T15:41:40.330Z,98078.09
2022-07-27T15:45:45.472Z,98082.34
2022-07-27T15:49:47.994Z,98083.31
2022-07-27T15:53:50.159Z,98069.94
2022-07-27T15:57:52.214Z,98065.97
2022-07-27T16:01:54.329Z,98077.31
2022-07-27T16:05:56.924Z,98060.88
2022-07-27T16:09:58.987Z,98067.78
2022-07-27T16:14:01.064Z,98053.72
2022-07-27T16:18:03.148Z,98046.25
2022-07-27T16:22:05.424Z,98051.38
2022-07-27T16:26:08.389Z,98052.19
2022-07-27T16:30:11.617Z,98053.28
2022-07-27T16:34:23.024Z,98043.72
2022-07-27T16:38:25.522Z,98042.00
2022-07-27T16:42:27.575Z,98047.09
2022-07-27T16:46:29.841Z,98045.09
2022-07-27T16:50:32.039Z,98041.16
2022-07-27T16:54:38.819Z,98035.81
2022-07-27T16:58:41.940Z,98041.78
2022-07-27T17:02:44.029Z,98026.69
2022-07-27T17:06:46.134Z,98032.66
2022-07-27T17:10:48.197Z,98034.84
2022-07-27T17:14:50.376Z,98033.03
2022-07-27T17:18:52.456Z,98032.78
2022-07-27T17:22:55.229Z,98032.03
2022-07-27T17:26:57.297Z,98032.53
2022-07-27T17:30:59.569Z,98034.25
2022-07-27T17:35:01.686Z,98043.75
2022-07-27T17:39:05.782Z,98035.50
2022-07-27T17:43:07.877Z,98040.66
2022-07-27T17:47:09.900Z,98045.78
2022-07-27T17:51:12.074Z,98046.28
2022-07-27T17:55:14.217Z,98042.00
2022-07-27T17:59:36.607Z,98046.66
2022-07-27T18:03:40.151Z,98044.38
2022-07-27T18:07:42.233Z,98049.97
2022-07-27T18:11:44.489Z,98047.41
2022-07-27T18:15:54.582Z,98057.25
2022-07-27T18:19:56.660Z,98051.34
2022-07-27T18:23:59.348Z,98060.34
2022-07-27T18:28:02.028Z,98059.84
2022-07-27T18:32:04.172Z,98068.09
2022-07-27T18:36:06.615Z,98067.81
2022-07-27T18:40:09.260Z,98070.69
2022-07-27T18:44:11.324Z,98075.47
2022-07-27T18:48:13.949Z,98075.56
2022-07-27T18:52:15.979Z,98082.19
2022-07-27T18:56:18.040Z,98086.28
2022-07-27T19:00:20.087Z,98099.16
2022-07-27T19:04:22.180Z,98093.09
2022-07-27T19:08:26.903Z,98109.16
2022-07-27T19:12:29.571Z,98106.53
2022-07-27T19:16:31.835Z,98106.38
2022-07-27T19:20:33.976Z,98113.38
2022-07-27T19:24:36.029Z,98122.31
2022-07-27T19:28:38.224Z,98126.22
2022-07-27T19:32:40.265Z,98136.53
2022-07-27T19:36:42.317Z,98137.16
2022-07-27T19:40:46.190Z,98137.03
2022-07-27T19:44:48.385Z,98133.97
2022-07-27T19:48:50.485Z,98145.19
2022-07-27T19:52:52.584Z,98145.59
2022-07-27T19:56:54.591Z,98154.34
2022-07-27T20:00:56.745Z,98159.09
2022-07-27T20:04:58.817Z,98167.53
2022-07-27T20:09:00.836Z,98172.84
2022-07-27T20:13:03.011Z,98172.38
2022-07-27T20:17:06.899Z,98170.63
2022-07-27T20:21:16.390Z,98178.22
2022-07-27T20:25:25.680Z,98181.19
2022-07-27T20:29:31.571Z,98173.06
2022-07-27T20:33:35.330Z,98175.81
2022-07-27T20:37:37.921Z,98169.28
2022-07-27T20:41:40.072Z,98176.47
2022-07-27T20:45:42.301Z,98176.47
2022-07-27T20:49:44.421Z,98178.38
2022-07-27T20:53:46.478Z,98178.66
2022-07-27T20:57:48.673Z,98180.28
2022-07-27T21:01:51.397Z,98178.41
2022-07-27T21:05:53.554Z,98166.13
2022-07-27T21:09:55.782Z,98180.50
2022-07-27T21:13:57.978Z,98187.94
2022-07-27T21:18:00.048Z,98181.34
2022-07-27T21:22:02.430Z,98189.56
2022-07-27T21:26:04.521Z,98182.13
2022-07-27T21:30:06.978Z,98179.47
2022-07-27T21:34:09.121Z,98182.13
2022-07-27T21:38:11.192Z,98180.97
2022-07-27T21:42:13.258Z,98179.16
2022-07-27T21:46:15.588Z,98180.72
2022-07-27T21:50:18.044Z,98186.88
2022-07-27T21:54:20.093Z,98187.66
2022-07-27T21:58:22.206Z,98185.84
2022-07-27T22:02:27.463Z,98184.97
2022-07-27T22:06:30.272Z,98190.41
2022-07-27T22:10:32.393Z,98189.03
2022-07-27T22:14:34.425Z,98188.91
2022-07-27T22:18:36.457Z,98192.47
2022-07-27T22:22:38.700Z,98198.97
2022-07-27T22:26:40.854Z,98198.09
2022-07-27T22:30:42.924Z,98194.53
2022-07-27T22:35:02.164Z,98198.28
2022-07-27T22:39:04.252Z,98202.63
2022-07-27T22:43:06.295Z,98214.09
2022-07-27T22:47:08.838Z,98215.63
2022-07-27T22:51:10.911Z,98212.13
2022-07-27T22:55:12.926Z,98215.72
2022-07-27T22:59:14.972Z,98215.63
2022-07-27T23:03:17.140Z,98222.78
2022-07-27T23:07:19.160Z,98214.75
2022-07-27T23:11:21.179Z,98218.38
2022-07-27T23:15:23.278Z,98211.81
2022-07-27T23:19:25.333Z,98207.53
2022-07-27T23:23:27.586Z,98210.59
2022-07-27T23:27:29.817Z,98213.34
2022-07-27T23:31:31.909Z,98215.00
2022-07-27T23:35:34.093Z,98213.72
2022-07-27T23:39:36.104Z,98218.97
2022-07-27T23:43:38.133Z,98207.66
2022-07-27T23:47:43.249Z,98202.78
2022-07-27T23:51:45.860Z,98205.22
2022-07-27T23:55:47.928Z,98202.59
2022-07-27T23:59:49.967Z,98206.53
